Time;durP1;ratioP1;P1;durP2;ratioP2;P2;SDS_P1;SDS_P2;PMS_P1;PMS_P2;Temp;Humidity;BMP_temperature;BMP_pressure;BME280_temperature;BME280_humidity;BME280_pressure;Samples;Min_cycle;Max_cycle;Signal;HPM_P1;HPM_P2
2021/10/12 00:00:26;;;;;;;8.97;2.97;;;12.80;93.10;;;;;;5055289;28;20441;-74
2021/10/12 00:02:53;;;;;;;10.73;2.60;;;12.80;93.00;;;;;;5054280;28;21068;-75
2021/10/12 00:05:20;;;;;;;7.50;2.37;;;12.90;93.10;;;;;;5054696;28;20426;-74
2021/10/12 00:07:47;;;;;;;7.43;2.93;;;12.90;93.10;;;;;;5054283;28;20985;-74
2021/10/12 00:10:15;;;;;;;8.03;3.40;;;13.00;93.20;;;;;;5054809;28;20450;-75
2021/10/12 00:12:42;;;;;;;8.00;3.10;;;13.10;93.10;;;;;;5054452;28;20472;-74
2021/10/12 00:15:10;;;;;;;9.23;3.20;;;13.10;92.90;;;;;;5054513;28;20503;-74
2021/10/12 00:17:37;;;;;;;6.47;3.03;;;13.20;92.80;;;;;;5054481;28;20434;-74
2021/10/12 00:20:04;;;;;;;7.33;3.37;;;13.10;92.50;;;;;;5054363;28;20460;-74
2021/10/12 00:22:31;;;;;;;6.50;3.30;;;13.10;92.60;;;;;;5054216;28;20488;-74
2021/10/12 00:24:58;;;;;;;9.20;3.90;;;13.00;92.70;;;;;;5054717;28;20544;-74
2021/10/12 00:27:26;;;;;;;16.60;4.67;;;12.90;92.90;;;;;;5053488;28;20449;-74
2021/10/12 00:29:53;;;;;;;5.90;4.27;;;12.80;93.10;;;;;;5053964;28;20958;-74
2021/10/12 00:32:20;;;;;;;5.40;3.93;;;12.80;93.20;;;;;;5054288;28;20460;-74
2021/10/12 00:34:46;;;;;;;10.93;4.90;;;12.70;93.30;;;;;;5054164;28;20935;-74
2021/10/12 00:37:13;;;;;;;9.67;5.30;;;12.70;93.40;;;;;;5054321;28;20479;-74
2021/10/12 00:39:40;;;;;;;12.93;5.20;;;12.70;93.50;;;;;;5054264;28;20488;-74
2021/10/12 00:42:07;;;;;;;7.67;5.10;;;12.70;93.40;;;;;;5054252;28;20437;-74
2021/10/12 00:44:35;;;;;;;8.07;5.50;;;12.70;93.40;;;;;;5053984;28;20469;-74
2021/10/12 00:47:03;;;;;;;10.30;5.20;;;12.70;93.30;;;;;;5054073;28;20445;-74
2021/10/12 00:49:29;;;;;;;8.97;5.43;;;12.70;93.40;;;;;;5054076;28;20453;-74
2021/10/12 00:51:56;;;;;;;11.30;5.10;;;12.70;93.50;;;;;;5054166;28;20521;-74
2021/10/12 00:54:23;;;;;;;9.00;5.60;;;12.60;93.50;;;;;;5054012;28;20474;-73
2021/10/12 00:56:50;;;;;;;14.43;6.40;;;12.60;93.80;;;;;;5053430;28;20963;-74
2021/10/12 00:59:16;;;;;;;11.67;6.73;;;12.60;93.80;;;;;;5053883;28;20449;-74
2021/10/12 01:01:44;;;;;;;10.10;5.50;;;12.60;94.00;;;;;;5053871;28;20430;-74
2021/10/12 01:04:11;;;;;;;8.13;5.70;;;12.60;94.10;;;;;;5053454;28;20488;-73
2021/10/12 01:06:38;;;;;;;11.00;6.20;;;12.60;94.10;;;;;;5053346;28;20847;-73
2021/10/12 01:09:05;;;;;;;9.97;5.67;;;12.60;94.00;;;;;;5053550;28;20448;-74
2021/10/12 01:11:34;;;;;;;13.03;5.67;;;12.60;94.10;;;;;;5053518;28;20448;-73
2021/10/12 01:14:02;;;;;;;13.97;7.17;;;12.70;94.10;;;;;;5053730;28;20484;-73
2021/10/12 01:16:29;;;;;;;11.70;5.67;;;12.60;94.00;;;;;;5053464;28;20445;-74
2021/10/12 01:18:58;;;;;;;18.30;6.10;;;12.70;94.10;;;;;;5053107;28;20449;-74
2021/10/12 01:21:26;;;;;;;14.53;5.93;;;12.70;94.10;;;;;;5053385;28;20451;-74
2021/10/12 01:23:53;;;;;;;12.00;6.67;;;12.80;94.10;;;;;;5053169;28;20493;-74
2021/10/12 01:26:21;;;;;;;13.60;6.00;;;12.80;93.90;;;;;;5053377;28;20866;-73
2021/10/12 01:28:48;;;;;;;8.83;6.10;;;12.80;93.90;;;;;;5053015;28;20448;-74
2021/10/12 01:31:19;;;;;;;12.80;5.73;;;12.80;93.90;;;;;;5053328;28;20454;-74
2021/10/12 01:33:46;;;;;;;11.57;6.63;;;12.80;93.80;;;;;;5053273;28;20458;-74
2021/10/12 01:36:13;;;;;;;11.07;5.80;;;12.80;93.70;;;;;;5053264;28;20449;-74
2021/10/12 01:38:41;;;;;;;8.00;5.63;;;12.80;93.70;;;;;;5053497;28;20445;-74
2021/10/12 01:41:08;;;;;;;14.77;5.90;;;12.70;93.60;;;;;;5057356;28;20442;-74
2021/10/12 01:43:35;;;;;;;12.63;6.40;;;12.70;93.70;;;;;;5056901;28;20829;-74
2021/10/12 01:46:05;;;;;;;9.73;6.57;;;12.70;93.70;;;;;;5057279;28;20445;-74
2021/10/12 01:48:32;;;;;;;12.50;7.10;;;12.70;93.80;;;;;;5057252;28;20426;-74
2021/10/12 01:51:00;;;;;;;10.57;6.40;;;12.60;93.80;;;;;;5056901;28;20438;-74
2021/10/12 01:53:26;;;;;;;11.67;7.50;;;12.60;93.90;;;;;;5057136;28;20468;-73
2021/10/12 01:55:55;;;;;;;11.40;6.93;;;12.50;94.00;;;;;;5057147;28;20449;-74
2021/10/12 01:58:21;;;;;;;17.70;7.73;;;12.50;94.00;;;;;;5057063;28;20445;-73
2021/10/12 02:00:48;;;;;;;13.40;7.13;;;12.50;94.20;;;;;;5057015;28;20499;-73
2021/10/12 02:03:15;;;;;;;16.33;7.80;;;12.50;94.40;;;;;;5056842;28;20504;-74
2021/10/12 02:05:41;;;;;;;15.43;7.50;;;12.50;94.40;;;;;;5056954;28;20437;-74
2021/10/12 02:08:08;;;;;;;13.50;8.20;;;12.50;94.50;;;;;;5057141;28;20437;-74
2021/10/12 02:10:35;;;;;;;11.83;8.17;;;12.50;94.60;;;;;;5056821;28;20446;-74
2021/10/12 02:13:03;;;;;;;14.07;8.87;;;12.50;94.60;;;;;;5056403;28;20457;-74
2021/10/12 02:15:30;;;;;;;14.37;8.70;;;12.50;94.70;;;;;;5056478;28;20503;-74
2021/10/12 02:17:57;;;;;;;15.77;6.73;;;12.50;94.60;;;;;;5056708;28;20445;-74
2021/10/12 02:20:23;;;;;;;10.53;7.83;;;12.50;94.40;;;;;;5056664;28;20477;-74
2021/10/12 02:22:50;;;;;;;12.40;8.17;;;12.50;94.60;;;;;;5056454;28;20485;-74
2021/10/12 02:25:17;;;;;;;15.90;8.40;;;12.40;94.60;;;;;;5056533;28;20445;-74
2021/10/12 02:27:44;;;;;;;10.07;7.73;;;12.50;94.70;;;;;;5056532;28;20449;-74
2021/10/12 02:30:12;;;;;;;15.63;7.80;;;12.40;94.60;;;;;;5056445;28;20441;-74
2021/10/12 02:32:39;;;;;;;17.57;8.17;;;12.40;94.60;;;;;;5056352;28;20465;-74
2021/10/12 02:35:07;;;;;;;13.10;7.83;;;12.40;94.70;;;;;;5056363;28;20448;-74
2021/10/12 02:37:34;;;;;;;11.70;8.37;;;12.40;94.70;;;;;;5056366;28;20441;-74
2021/10/12 02:40:01;;;;;;;13.07;9.80;;;12.40;94.70;;;;;;5056340;28;20458;-74
2021/10/12 02:42:28;;;;;;;12.80;7.63;;;12.30;94.70;;;;;;5055840;28;20437;-74
2021/10/12 02:44:54;;;;;;;12.20;7.90;;;12.30;94.70;;;;;;5056163;28;20484;-74
2021/10/12 02:47:22;;;;;;;10.53;8.37;;;12.30;94.70;;;;;;5056161;28;20442;-74
2021/10/12 02:49:49;;;;;;;11.23;8.33;;;12.30;94.70;;;;;;5055913;28;20832;-74
2021/10/12 02:52:16;;;;;;;16.83;8.27;;;12.40;94.70;;;;;;5055045;28;20457;-74
2021/10/12 02:54:42;;;;;;;16.00;8.40;;;12.40;94.70;;;;;;5055659;28;20998;-75
2021/10/12 02:57:09;;;;;;;10.43;7.43;;;12.40;94.60;;;;;;5056002;28;20441;-74
2021/10/12 02:59:36;;;;;;;10.90;7.60;;;12.40;94.60;;;;;;5055605;28;20932;-74
2021/10/12 03:02:03;;;;;;;12.23;8.50;;;12.40;94.50;;;;;;5055864;28;20449;-74
2021/10/12 03:04:31;;;;;;;14.13;8.40;;;12.30;94.70;;;;;;5055714;28;20481;-74
2021/10/12 03:06:57;;;;;;;17.80;7.77;;;12.30;94.60;;;;;;5055763;28;20469;-74
2021/10/12 03:09:24;;;;;;;16.50;7.60;;;12.40;94.70;;;;;;5055434;28;20958;-74
2021/10/12 03:11:51;;;;;;;10.30;7.63;;;12.40;94.60;;;;;;5055697;28;20449;-74
2021/10/12 03:14:18;;;;;;;12.17;7.50;;;12.40;94.60;;;;;;5055668;28;20469;-74
2021/10/12 03:16:44;;;;;;;12.10;8.40;;;12.40;94.50;;;;;;5055286;28;20943;-75
2021/10/12 03:19:12;;;;;;;19.23;7.00;;;12.40;94.70;;;;;;5055527;28;20449;-74
2021/10/12 03:21:47;;;;;;;11.83;8.50;;;12.40;94.50;;;;;;5055172;28;20990;-75
2021/10/12 03:24:14;;;;;;;19.23;8.47;;;12.40;94.50;;;;;;5055363;28;20579;-75
2021/10/12 03:26:40;;;;;;;14.63;8.17;;;12.40;94.40;;;;;;5055072;28;20936;-75
2021/10/12 03:29:07;;;;;;;13.00;8.00;;;12.40;94.40;;;;;;5055383;28;20483;-74
2021/10/12 03:31:34;;;;;;;13.70;8.23;;;12.40;94.50;;;;;;5055339;28;20468;-74
2021/10/12 03:34:01;;;;;;;12.50;8.07;;;12.30;94.60;;;;;;5055230;28;20457;-75
2021/10/12 03:36:27;;;;;;;17.40;8.73;;;12.30;94.60;;;;;;5054914;28;20449;-74
2021/10/12 03:38:55;;;;;;;19.00;9.30;;;12.30;94.60;;;;;;5055185;28;20468;-75
2021/10/12 03:41:22;;;;;;;12.80;7.90;;;12.20;94.60;;;;;;5054827;28;20975;-74
2021/10/12 03:43:49;;;;;;;12.17;8.37;;;12.20;94.70;;;;;;5054690;28;20982;-74
2021/10/12 03:46:15;;;;;;;12.43;8.03;;;12.10;94.80;;;;;;5055064;28;20475;-75
2021/10/12 03:48:42;;;;;;;12.30;8.40;;;12.20;95.00;;;;;;5055049;28;20459;-74
2021/10/12 03:51:09;;;;;;;18.13;7.80;;;12.10;95.10;;;;;;5055027;28;20433;-75
2021/10/12 03:53:36;;;;;;;21.43;8.70;;;12.10;95.10;;;;;;5054871;28;20675;-74
2021/10/12 03:56:04;;;;;;;14.70;8.13;;;12.10;95.10;;;;;;5054599;28;20926;-75
2021/10/12 03:58:32;;;;;;;12.73;8.30;;;12.10;95.10;;;;;;5054861;28;20445;-74
2021/10/12 04:00:58;;;;;;;11.73;8.03;;;12.10;95.20;;;;;;5054748;28;20456;-75
2021/10/12 04:03:25;;;;;;;10.50;7.90;;;12.10;95.20;;;;;;5054822;28;20489;-75
2021/10/12 04:05:52;;;;;;;13.33;7.00;;;12.00;95.00;;;;;;5054420;28;20907;-74
2021/10/12 04:08:19;;;;;;;16.60;8.43;;;12.10;95.10;;;;;;5054611;28;20445;-74
2021/10/12 04:10:45;;;;;;;15.60;7.83;;;12.10;95.10;;;;;;5054581;28;20472;-74
2021/10/12 04:13:13;;;;;;;14.13;7.63;;;12.10;94.90;;;;;;5054286;28;20843;-74
2021/10/12 04:15:40;;;;;;;16.07;7.17;;;12.10;95.00;;;;;;5054520;28;20453;-74
2021/10/12 04:18:10;;;;;;;12.43;6.60;;;12.10;95.10;;;;;;5054425;28;20451;-75
2021/10/12 04:20:36;;;;;;;16.57;7.50;;;12.10;94.90;;;;;;5054618;28;20442;-74
2021/10/12 04:23:07;;;;;;;12.30;7.03;;;12.10;95.20;;;;;;5053880;28;20477;-74
2021/10/12 04:25:34;;;;;;;12.87;7.30;;;12.10;95.10;;;;;;5054307;28;20474;-74
2021/10/12 04:28:01;;;;;;;16.53;7.03;;;12.10;95.10;;;;;;5053961;28;20903;-76
2021/10/12 04:30:29;;;;;;;14.30;6.90;;;12.10;95.10;;;;;;5053881;28;20536;-76
2021/10/12 04:32:56;;;;;;;13.70;7.27;;;12.10;95.10;;;;;;5054099;28;20469;-76
2021/10/12 04:35:22;;;;;;;16.57;7.90;;;12.10;95.00;;;;;;5054179;28;20799;-76
2021/10/12 04:37:49;;;;;;;10.10;6.97;;;12.10;94.90;;;;;;5053728;28;20464;-76
2021/10/12 04:40:16;;;;;;;10.70;6.17;;;12.20;94.90;;;;;;5054028;28;20453;-76
2021/10/12 04:42:43;;;;;;;15.03;7.30;;;12.10;94.90;;;;;;5053903;28;20515;-76
2021/10/12 04:45:10;;;;;;;12.63;6.47;;;12.10;95.00;;;;;;5053570;28;20484;-76
2021/10/12 04:47:40;;;;;;;14.43;6.60;;;12.10;95.00;;;;;;5053556;28;20448;-76
2021/10/12 04:50:07;;;;;;;10.77;6.87;;;12.10;95.20;;;;;;5054670;28;20445;-76
2021/10/12 04:52:34;;;;;;;12.13;6.87;;;12.00;95.20;;;;;;5053752;28;20442;-76
2021/10/12 04:55:01;;;;;;;16.50;7.07;;;11.90;95.20;;;;;;5053780;28;20444;-76
2021/10/12 04:57:28;;;;;;;11.27;6.33;;;11.90;95.30;;;;;;5053720;28;20457;-76
2021/10/12 04:59:54;;;;;;;14.37;6.27;;;11.90;95.50;;;;;;5053733;28;20450;-76
2021/10/12 05:02:21;;;;;;;12.10;6.60;;;11.90;95.60;;;;;;5053336;28;20448;-76
2021/10/12 05:04:49;;;;;;;13.47;6.67;;;11.90;95.60;;;;;;5053237;28;20885;-76
2021/10/12 05:07:16;;;;;;;12.63;6.60;;;11.90;95.60;;;;;;5053659;28;20433;-76
2021/10/12 05:09:43;;;;;;;13.10;5.80;;;11.90;95.50;;;;;;5053541;28;20441;-76
2021/10/12 05:12:09;;;;;;;13.03;6.53;;;11.90;95.50;;;;;;5053501;28;20449;-76
2021/10/12 05:14:36;;;;;;;15.77;6.73;;;11.90;95.60;;;;;;5052920;28;20855;-76
2021/10/12 05:17:05;;;;;;;12.60;5.87;;;11.90;95.60;;;;;;5053333;28;20446;-76
2021/10/12 05:19:33;;;;;;;11.27;5.80;;;11.90;95.50;;;;;;5053192;28;20842;-76
2021/10/12 05:22:01;;;;;;;12.00;6.67;;;11.90;95.60;;;;;;5053466;28;20465;-76
2021/10/12 05:24:28;;;;;;;13.23;6.90;;;11.90;95.60;;;;;;5052918;28;20496;-76
2021/10/12 05:26:55;;;;;;;12.73;6.27;;;11.90;95.40;;;;;;5053408;28;20436;-76
2021/10/12 05:29:22;;;;;;;12.70;6.83;;;11.90;95.70;;;;;;5053463;28;20434;-76
2021/10/12 05:31:48;;;;;;;11.30;6.10;;;11.90;95.90;;;;;;5053324;28;20445;-76
2021/10/12 05:34:16;;;;;;;12.73;7.20;;;11.90;95.70;;;;;;5052960;28;20822;-76
2021/10/12 05:36:43;;;;;;;15.90;5.97;;;11.90;95.50;;;;;;5053333;28;20453;-76
2021/10/12 05:39:11;;;;;;;13.60;6.37;;;11.90;95.60;;;;;;5052974;28;20836;-76
2021/10/12 05:41:38;;;;;;;8.90;6.97;;;11.90;95.70;;;;;;5053790;28;20450;-76
2021/10/12 05:44:05;;;;;;;8.63;5.47;;;11.90;95.80;;;;;;5053150;28;20481;-76
2021/10/12 05:46:32;;;;;;;9.20;6.30;;;11.80;95.80;;;;;;5053252;28;20445;-76
2021/10/12 05:48:59;;;;;;;14.20;7.20;;;11.80;95.80;;;;;;5053238;28;20429;-76
2021/10/12 05:51:26;;;;;;;13.80;7.03;;;11.80;95.80;;;;;;5053185;28;20448;-76
2021/10/12 05:53:54;;;;;;;13.57;6.77;;;11.80;95.80;;;;;;5052779;28;20465;-76
2021/10/12 05:56:25;;;;;;;13.00;7.03;;;11.80;95.70;;;;;;5053071;28;20454;-76
2021/10/12 05:58:53;;;;;;;17.30;7.40;;;11.80;96.00;;;;;;5053158;28;20505;-76
2021/10/12 06:01:22;;;;;;;14.57;8.80;;;11.80;95.90;;;;;;5053147;28;20521;-76
2021/10/12 06:03:49;;;;;;;11.13;7.40;;;11.80;95.80;;;;;;5052781;28;20469;-76
2021/10/12 06:06:16;;;;;;;16.37;7.43;;;11.80;95.70;;;;;;5053200;28;20446;-76
2021/10/12 06:08:44;;;;;;;16.30;8.03;;;11.80;95.80;;;;;;5053194;28;20807;-76
2021/10/12 06:11:11;;;;;;;14.33;7.07;;;11.70;95.90;;;;;;5053019;28;20446;-76
2021/10/12 06:13:41;;;;;;;14.20;7.10;;;11.70;96.00;;;;;;5052908;28;20461;-76
2021/10/12 06:16:08;;;;;;;10.20;6.93;;;11.80;96.00;;;;;;5052692;28;20477;-76
2021/10/12 06:18:35;;;;;;;16.40;7.10;;;11.80;95.90;;;;;;5052648;28;20776;-76
2021/10/12 06:21:02;;;;;;;15.50;7.83;;;11.80;95.60;;;;;;5052998;28;20452;-76
2021/10/12 06:23:29;;;;;;;10.67;6.00;;;11.80;95.80;;;;;;5052665;28;20473;-76
2021/10/12 06:25:56;;;;;;;12.70;5.63;;;11.80;95.80;;;;;;5055303;28;20489;-75
2021/10/12 06:28:23;;;;;;;12.60;7.17;;;11.90;95.80;;;;;;5057603;28;20453;-74
2021/10/12 06:30:51;;;;;;;13.20;6.40;;;11.90;96.20;;;;;;5056528;28;20450;-75
2021/10/12 06:33:18;;;;;;;15.60;6.27;;;11.90;95.70;;;;;;5056403;28;20466;-75
2021/10/12 06:35:45;;;;;;;9.40;6.10;;;11.90;95.50;;;;;;5056432;28;20931;-75
2021/10/12 06:38:12;;;;;;;11.73;5.43;;;11.80;95.40;;;;;;5056330;28;20441;-75
2021/10/12 06:40:39;;;;;;;9.30;5.43;;;11.90;95.60;;;;;;5056012;28;20445;-74
2021/10/12 06:43:05;;;;;;;14.87;5.80;;;11.90;95.80;;;;;;5056237;28;20511;-74
2021/10/12 06:45:32;;;;;;;17.10;5.90;;;11.90;95.70;;;;;;5056195;28;20481;-74
2021/10/12 06:48:00;;;;;;;13.70;4.77;;;11.80;95.80;;;;;;5056220;28;20453;-74
2021/10/12 06:50:27;;;;;;;9.40;5.70;;;11.80;95.80;;;;;;5056204;28;20438;-74
2021/10/12 06:52:54;;;;;;;14.43;5.80;;;11.90;95.90;;;;;;5056423;28;20492;-75
2021/10/12 06:55:21;;;;;;;13.43;5.43;;;11.90;95.90;;;;;;5056075;28;20495;-75
2021/10/12 06:57:48;;;;;;;8.30;5.23;;;11.90;95.90;;;;;;5055990;28;20456;-74
2021/10/12 07:00:17;;;;;;;15.07;6.90;;;11.90;95.80;;;;;;5055927;28;20450;-74
2021/10/12 07:02:45;;;;;;;9.70;5.87;;;12.00;95.90;;;;;;5055848;28;20469;-74
2021/10/12 07:05:14;;;;;;;11.00;6.13;;;12.00;95.80;;;;;;5056457;28;20588;-74
2021/10/12 07:07:41;;;;;;;12.70;5.40;;;12.00;95.70;;;;;;5055342;28;20954;-74
2021/10/12 07:10:10;;;;;;;11.57;5.00;;;12.10;95.70;;;;;;5055248;28;20483;-74
2021/10/12 07:12:37;;;;;;;10.80;5.00;;;12.10;95.50;;;;;;5055487;28;20468;-74
2021/10/12 07:15:05;;;;;;;10.00;5.10;;;12.10;95.30;;;;;;5055649;28;20495;-74
2021/10/12 07:17:32;;;;;;;15.87;6.57;;;12.10;95.50;;;;;;5055806;28;20434;-74
2021/10/12 07:19:58;;;;;;;11.23;5.20;;;12.10;95.50;;;;;;5055517;28;20563;-74
2021/10/12 07:22:27;;;;;;;11.27;5.57;;;12.10;95.50;;;;;;5055077;28;20457;-75
2021/10/12 07:24:54;;;;;;;16.73;6.63;;;12.10;95.40;;;;;;5054978;28;20477;-75
2021/10/12 07:27:21;;;;;;;6.90;4.90;;;12.20;95.60;;;;;;5055388;28;20469;-75
2021/10/12 07:29:50;;;;;;;14.23;6.80;;;12.20;95.60;;;;;;5055364;28;20565;-75
2021/10/12 07:32:18;;;;;;;13.97;6.37;;;12.30;95.50;;;;;;5055266;28;20452;-75
2021/10/12 07:34:44;;;;;;;14.93;7.77;;;12.30;95.40;;;;;;5055183;28;20983;-75
2021/10/12 07:37:11;;;;;;;11.60;7.43;;;12.30;95.40;;;;;;5054531;28;20468;-75
2021/10/12 07:39:41;;;;;;;12.60;8.07;;;12.30;95.40;;;;;;5055107;28;20453;-75
2021/10/12 07:42:08;;;;;;;14.97;8.73;;;12.30;95.70;;;;;;5055394;28;20444;-75
2021/10/12 07:44:37;;;;;;;14.73;8.33;;;12.30;95.80;;;;;;5054929;28;20469;-74
2021/10/12 07:47:04;;;;;;;11.30;7.27;;;12.30;95.60;;;;;;5055028;28;20521;-74
2021/10/12 07:49:32;;;;;;;12.67;7.50;;;12.30;95.80;;;;;;5054673;28;20441;-73
2021/10/12 07:51:59;;;;;;;18.03;7.90;;;12.30;95.90;;;;;;5054925;28;20499;-74
2021/10/12 07:54:27;;;;;;;8.17;6.60;;;12.40;95.90;;;;;;5054506;28;21033;-76
2021/10/12 07:56:55;;;;;;;14.30;7.40;;;12.40;95.60;;;;;;5054850;28;20445;-75
2021/10/12 07:59:22;;;;;;;13.17;8.30;;;12.40;95.70;;;;;;5054426;28;20932;-75
2021/10/12 08:01:49;;;;;;;16.00;7.90;;;12.40;95.60;;;;;;5054766;28;20450;-75
2021/10/12 08:04:16;;;;;;;12.60;8.20;;;12.40;95.60;;;;;;5054776;28;20461;-75
2021/10/12 08:06:42;;;;;;;15.70;7.97;;;12.40;95.70;;;;;;5054530;28;20477;-74
2021/10/12 08:09:09;;;;;;;13.73;8.30;;;12.40;95.90;;;;;;5054609;28;20446;-74
2021/10/12 08:11:36;;;;;;;12.63;8.70;;;12.40;96.10;;;;;;5054825;28;20449;-75
2021/10/12 08:14:07;;;;;;;22.47;11.43;;;12.30;96.30;;;;;;5054358;28;20979;-75
2021/10/12 08:16:33;;;;;;;17.00;10.37;;;12.40;96.60;;;;;;5054512;28;20432;-75
2021/10/12 08:19:01;;;;;;;13.40;9.80;;;12.40;96.60;;;;;;5054419;28;20441;-75
2021/10/12 08:21:29;;;;;;;13.20;9.60;;;12.40;96.60;;;;;;5054506;28;20453;-75
2021/10/12 08:23:57;;;;;;;17.00;11.17;;;12.40;96.60;;;;;;5053869;28;20485;-75
2021/10/12 08:26:24;;;;;;;16.03;10.27;;;12.40;96.80;;;;;;5054177;28;20508;-75
2021/10/12 08:28:51;;;;;;;10.77;9.73;;;12.40;96.60;;;;;;5054116;28;20453;-75
2021/10/12 08:31:19;;;;;;;16.23;9.97;;;12.50;96.50;;;;;;5054052;28;20433;-74
2021/10/12 08:33:47;;;;;;;19.00;10.37;;;12.40;96.60;;;;;;5054195;28;20472;-74
2021/10/12 08:36:14;;;;;;;15.50;11.40;;;12.40;96.70;;;;;;5054727;28;20445;-74
2021/10/12 08:38:41;;;;;;;12.23;11.03;;;12.40;96.80;;;;;;5053874;28;20449;-74
2021/10/12 08:41:08;;;;;;;12.07;10.40;;;12.50;97.10;;;;;;5053900;28;20445;-74
2021/10/12 08:43:36;;;;;;;15.63;11.47;;;12.50;96.80;;;;;;5053813;28;20472;-74
2021/10/12 08:46:04;;;;;;;12.13;10.00;;;12.50;96.90;;;;;;5053383;28;20862;-74
2021/10/12 08:48:33;;;;;;;11.40;10.27;;;12.50;97.00;;;;;;5052850;28;20447;-74
2021/10/12 08:51:01;;;;;;;12.13;10.47;;;12.50;97.20;;;;;;5053724;28;20448;-74
2021/10/12 08:53:29;;;;;;;11.30;10.13;;;12.60;97.10;;;;;;5053682;28;20465;-73
2021/10/12 08:55:57;;;;;;;11.83;10.40;;;12.60;97.20;;;;;;5055214;28;20430;-74
2021/10/12 08:58:25;;;;;;;16.30;10.70;;;12.70;97.10;;;;;;5053563;28;20469;-73
2021/10/12 09:01:04;;;;;;;14.17;9.80;;;12.70;96.90;;;;;;5053580;28;20453;-72
2021/10/12 09:03:45;;;;;;;14.60;9.60;;;12.60;96.90;;;;;;5053667;28;20465;-74
2021/10/12 09:06:12;;;;;;;12.33;10.07;;;12.60;97.00;;;;;;5053419;28;20476;-74
2021/10/12 09:08:41;;;;;;;11.50;9.90;;;12.60;97.10;;;;;;5054260;28;20449;-74
2021/10/12 09:11:21;;;;;;;12.57;10.10;;;12.60;97.00;;;;;;5054779;28;20944;-74
2021/10/12 09:13:49;;;;;;;11.47;10.33;;;12.70;97.00;;;;;;5054771;28;20890;-74
2021/10/12 09:16:18;;;;;;;15.97;10.87;;;12.60;96.80;;;;;;5054312;28;20452;-74
2021/10/12 09:18:55;;;;;;;12.00;10.20;;;12.60;97.00;;;;;;5053064;28;20926;-75
2021/10/12 09:21:25;;;;;;;13.93;10.57;;;12.50;97.20;;;;;;5053898;28;20421;-75
2021/10/12 09:24:01;;;;;;;13.57;11.17;;;12.50;97.30;;;;;;5052878;28;20481;-75
2021/10/12 09:26:31;;;;;;;13.30;11.93;;;12.60;97.50;;;;;;5053216;28;20457;-75
2021/10/12 09:28:59;;;;;;;13.13;11.70;;;12.60;97.60;;;;;;5054134;28;20481;-75
2021/10/12 09:31:32;;;;;;;16.20;12.80;;;12.70;97.40;;;;;;5053000;28;20904;-76
2021/10/12 09:34:03;;;;;;;13.53;12.23;;;12.80;97.30;;;;;;5053194;28;20528;-76
2021/10/12 09:36:33;;;;;;;14.27;12.50;;;12.90;97.40;;;;;;5053193;28;20951;-76
2021/10/12 09:39:00;;;;;;;14.57;13.00;;;12.90;97.20;;;;;;5053385;28;20446;-76
2021/10/12 09:41:28;;;;;;;15.60;13.53;;;12.90;96.90;;;;;;5052814;28;20487;-76
2021/10/12 09:44:13;;;;;;;17.50;12.53;;;13.00;96.80;;;;;;5053053;28;20468;-76
2021/10/12 09:46:41;;;;;;;12.77;11.47;;;13.00;96.70;;;;;;5053033;28;20468;-76
2021/10/12 09:49:15;;;;;;;16.30;13.80;;;13.00;96.60;;;;;;5053083;28;20430;-76
2021/10/12 09:51:44;;;;;;;18.37;13.00;;;13.10;96.80;;;;;;5052833;28;20429;-76
2021/10/12 09:54:21;;;;;;;16.50;14.73;;;13.10;96.80;;;;;;5053043;28;20523;-76
2021/10/12 09:56:48;;;;;;;14.57;12.87;;;13.20;96.60;;;;;;5053043;28;20455;-76
2021/10/12 09:59:15;;;;;;;13.17;11.80;;;13.20;96.60;;;;;;5053060;28;20449;-75
2021/10/12 10:01:43;;;;;;;15.67;12.13;;;13.20;96.60;;;;;;5056695;28;20449;-75
2021/10/12 10:04:14;;;;;;;15.93;12.03;;;13.20;96.80;;;;;;5056838;28;20476;-76
2021/10/12 10:06:43;;;;;;;17.97;12.93;;;13.30;96.70;;;;;;5056834;28;20472;-76
2021/10/12 10:09:12;;;;;;;18.20;12.20;;;13.30;96.50;;;;;;5056695;28;20958;-76
2021/10/12 10:11:39;;;;;;;16.60;12.87;;;13.30;96.40;;;;;;5056475;28;20892;-76
2021/10/12 10:14:08;;;;;;;13.70;11.60;;;13.40;96.40;;;;;;5056649;28;20461;-77
2021/10/12 10:16:37;;;;;;;16.53;12.33;;;13.40;96.50;;;;;;5056720;28;20496;-77
2021/10/12 10:19:08;;;;;;;16.90;12.40;;;13.40;96.70;;;;;;5056728;28;20487;-76
2021/10/12 10:21:41;;;;;;;15.80;11.90;;;13.50;96.70;;;;;;5056917;28;20433;-76
2021/10/12 10:24:12;;;;;;;13.07;11.50;;;13.50;96.50;;;;;;5056685;28;20574;-76
2021/10/12 10:26:40;;;;;;;14.83;11.50;;;13.60;96.60;;;;;;5056463;28;20500;-76
2021/10/12 10:29:21;;;;;;;20.60;12.07;;;13.60;96.70;;;;;;5056450;28;20451;-76
2021/10/12 10:31:51;;;;;;;13.47;12.00;;;13.70;96.50;;;;;;5056739;28;20441;-76
2021/10/12 10:34:36;;;;;;;15.33;12.17;;;13.60;96.50;;;;;;5056356;28;20501;-76
2021/10/12 10:37:29;;;;;;;15.60;13.40;;;13.70;96.60;;;;;;5056158;28;20442;-75
2021/10/12 10:40:02;;;;;;;13.20;11.90;;;13.70;96.70;;;;;;5056134;28;20483;-76
2021/10/12 10:43:00;;;;;;;14.13;12.80;;;13.70;96.70;;;;;;5056507;28;20434;-76
2021/10/12 10:45:41;;;;;;;16.67;12.93;;;13.70;96.70;;;;;;5055990;28;20800;-75
2021/10/12 10:48:09;;;;;;;22.40;13.80;;;13.70;96.90;;;;;;5056129;28;20430;-75
2021/10/12 10:50:36;;;;;;;18.90;11.37;;;13.80;96.80;;;;;;5055990;28;20450;-75
2021/10/12 10:53:06;;;;;;;15.10;13.40;;;13.80;96.60;;;;;;5056193;28;20472;-75
2021/10/12 10:55:35;;;;;;;22.23;15.20;;;13.80;96.40;;;;;;5055925;28;20425;-75
2021/10/12 10:58:06;;;;;;;15.77;14.07;;;13.80;96.50;;;;;;5055576;28;20958;-75
2021/10/12 11:00:44;;;;;;;22.70;13.83;;;13.80;96.60;;;;;;5055875;28;20441;-74
2021/10/12 11:03:36;;;;;;;21.37;15.00;;;13.80;96.70;;;;;;5055502;28;21081;-73
2021/10/12 11:06:04;;;;;;;24.80;14.37;;;13.80;96.80;;;;;;5056169;28;20461;-74
2021/10/12 11:08:39;;;;;;;22.40;13.43;;;13.80;96.80;;;;;;5055768;28;20441;-73
2021/10/12 11:11:08;;;;;;;18.17;13.40;;;13.90;96.90;;;;;;5055043;28;20790;-74
2021/10/12 11:13:37;;;;;;;17.03;13.60;;;13.90;96.80;;;;;;5055445;28;20468;-73
2021/10/12 11:16:05;;;;;;;21.10;14.67;;;13.90;96.80;;;;;;5056721;28;20449;-73
2021/10/12 11:18:32;;;;;;;18.40;13.90;;;13.90;96.90;;;;;;5055554;28;20802;-73
2021/10/12 11:21:02;;;;;;;14.50;13.17;;;13.80;96.90;;;;;;5055613;28;20511;-74
2021/10/12 11:23:32;;;;;;;18.63;14.50;;;13.70;96.90;;;;;;5055254;28;20477;-74
2021/10/12 11:26:07;;;;;;;16.43;14.67;;;13.80;97.20;;;;;;5055441;28;20565;-74
2021/10/12 11:28:36;;;;;;;16.20;14.60;;;13.80;97.30;;;;;;5055327;28;20429;-74
2021/10/12 11:31:05;;;;;;;15.90;13.93;;;13.80;97.30;;;;;;5055369;28;20448;-74
2021/10/12 11:33:37;;;;;;;15.50;14.00;;;13.80;97.30;;;;;;5055150;28;20466;-74
2021/10/12 11:36:06;;;;;;;14.93;13.40;;;13.90;97.30;;;;;;5055232;28;20442;-74
2021/10/12 11:38:35;;;;;;;14.30;12.87;;;13.90;97.30;;;;;;5055220;28;20449;-75
2021/10/12 11:41:22;;;;;;;13.43;10.47;;;14.00;97.30;;;;;;5055538;28;20449;-75
2021/10/12 11:43:51;;;;;;;10.13;9.03;;;14.10;97.10;;;;;;5054449;28;20993;-75
2021/10/12 11:46:23;;;;;;;10.70;9.60;;;14.20;97.00;;;;;;5055144;28;20472;-75
2021/10/12 11:48:49;;;;;;;11.67;9.30;;;14.20;96.80;;;;;;5054962;28;20450;-75
2021/10/12 11:51:22;;;;;;;9.10;8.20;;;14.30;96.80;;;;;;5054566;28;20946;-75
2021/10/12 11:53:50;;;;;;;8.97;8.20;;;14.30;96.60;;;;;;5054874;28;20484;-75
2021/10/12 11:56:20;;;;;;;9.70;8.67;;;14.40;96.50;;;;;;5054947;28;20935;-75
2021/10/12 11:58:49;;;;;;;8.97;8.13;;;14.40;96.20;;;;;;5055357;28;20456;-74
2021/10/12 12:01:26;;;;;;;8.60;7.77;;;14.50;96.40;;;;;;5054750;28;20446;-74
2021/10/12 12:03:54;;;;;;;8.27;7.50;;;14.60;96.20;;;;;;5054790;28;20465;-74
2021/10/12 12:06:24;;;;;;;9.37;8.00;;;14.60;95.90;;;;;;5054595;28;20488;-74
2021/10/12 12:08:52;;;;;;;9.53;7.47;;;14.80;96.10;;;;;;5054407;28;20448;-74
2021/10/12 12:11:23;;;;;;;8.50;7.60;;;15.10;96.30;;;;;;5054554;28;20495;-74
2021/10/12 12:13:53;;;;;;;8.13;7.53;;;15.40;95.80;;;;;;5054521;28;20556;-74
2021/10/12 12:16:20;;;;;;;8.67;7.77;;;15.60;95.10;;;;;;5054363;28;20503;-75
2021/10/12 12:18:47;;;;;;;10.37;7.10;;;15.70;94.60;;;;;;5054300;28;20955;-75
2021/10/12 12:21:15;;;;;;;7.53;6.80;;;15.80;93.70;;;;;;5054008;28;20772;-75
2021/10/12 12:23:43;;;;;;;8.00;6.90;;;15.90;93.30;;;;;;5054172;28;20511;-75
2021/10/12 12:26:12;;;;;;;7.13;6.53;;;15.90;92.90;;;;;;5054113;28;20493;-75
2021/10/12 12:28:39;;;;;;;9.67;6.17;;;16.00;92.80;;;;;;5054106;28;20452;-75
2021/10/12 12:31:23;;;;;;;7.50;5.80;;;16.00;92.70;;;;;;5054541;28;20787;-75
2021/10/12 12:33:51;;;;;;;6.67;5.97;;;16.10;92.30;;;;;;5054105;28;20466;-75
2021/10/12 12:36:19;;;;;;;6.50;5.90;;;16.40;91.90;;;;;;5054196;28;20448;-75
2021/10/12 12:38:47;;;;;;;6.27;5.67;;;16.60;91.50;;;;;;5054159;28;20447;-76
2021/10/12 12:41:19;;;;;;;7.70;6.03;;;16.80;90.90;;;;;;5054097;28;20445;-75